Time;durP1;ratioP1;P1;durP2;ratioP2;P2;SDS_P1;SDS_P2;PMS_P1;PMS_P2;Temp;Humidity;BMP_temperature;BMP_pressure;BME280_temperature;BME280_humidity;BME280_pressure;Samples;Min_cycle;Max_cycle;Signal;HPM_P1;HPM_P2
2022/05/05 00:01:38;;;;;;;9.75;7.10;;;;;;;10.78;71.95;101980.03;10361927;28;20113;-73
2022/05/05 00:06:38;;;;;;;20.20;8.23;;;;;;;10.85;72.03;101981.06;10344252;28;20455;-72
2022/05/05 00:17:03;;;;;;;8.20;7.40;;;;;;;10.77;71.27;101986.50;10376724;28;20482;-72
2022/05/05 00:22:04;;;;;;;10.93;7.07;;;;;;;10.58;71.09;101987.69;10377971;28;20040;-73
2022/05/05 00:27:07;;;;;;;13.18;9.55;;;;;;;10.36;70.53;101997.34;10359191;28;20062;-73
2022/05/05 00:32:08;;;;;;;11.98;7.63;;;;;;;10.35;72.88;101992.97;10376654;28;20036;-73
2022/05/05 00:37:09;;;;;;;15.52;9.45;;;;;;;10.46;72.54;101988.06;10377353;28;20042;-73
2022/05/05 00:42:10;;;;;;;18.73;11.68;;;;;;;10.44;73.54;101990.06;10376848;28;20038;-73
2022/05/05 00:47:14;;;;;;;12.25;9.48;;;;;;;10.31;72.94;101983.50;10376724;28;20041;-73
2022/05/05 00:52:15;;;;;;;10.85;9.20;;;;;;;10.06;72.89;101978.03;10343247;28;20053;-74
2022/05/05 00:57:15;;;;;;;15.27;9.63;;;;;;;9.94;73.72;101982.91;10376776;28;20038;-72
2022/05/05 01:02:16;;;;;;;20.65;9.52;;;;;;;9.82;73.59;101983.38;10342644;28;20464;-73
2022/05/05 01:07:18;;;;;;;12.30;7.75;;;;;;;9.73;74.30;101982.50;10375507;28;20061;-73
2022/05/05 01:12:20;;;;;;;15.25;9.05;;;;;;;9.64;74.50;101975.41;10359705;28;20038;-72
2022/05/05 01:17:21;;;;;;;12.82;10.10;;;;;;;9.54;74.95;101986.38;10375937;28;20041;-73
2022/05/05 01:22:25;;;;;;;13.48;9.93;;;;;;;9.37;73.47;101973.78;10375364;28;20041;-73
2022/05/05 01:32:45;;;;;;;10.90;9.10;;;;;;;9.22;73.75;101969.03;10374910;28;20037;-72
2022/05/05 01:37:45;;;;;;;13.77;8.93;;;;;;;9.12;73.47;101973.69;10375910;28;20034;-73
2022/05/05 01:42:46;;;;;;;17.73;9.20;;;;;;;9.05;74.18;101969.94;10377750;28;20050;-74
2022/05/05 01:47:46;;;;;;;14.82;8.93;;;;;;;9.05;78.02;101969.94;10376180;28;20034;-73
2022/05/05 01:52:47;;;;;;;21.73;11.70;;;;;;;9.07;80.69;101973.34;10357790;28;20512;-74
2022/05/05 01:57:48;;;;;;;20.90;12.30;;;;;;;9.06;78.18;101980.59;10359658;28;20079;-73
2022/05/05 02:02:48;;;;;;;25.70;11.98;;;;;;;8.99;76.71;101984.09;10376729;28;20429;-73
2022/05/05 02:07:48;;;;;;;21.40;13.68;;;;;;;8.92;76.65;101994.69;10342292;28;20161;-74
2022/05/05 02:12:51;;;;;;;15.88;10.85;;;;;;;8.94;77.01;101990.00;10373194;28;20037;-73
2022/05/05 02:17:51;;;;;;;23.75;15.13;;;;;;;8.93;76.60;101996.38;10375469;28;20061;-73
2022/05/05 02:22:51;;;;;;;17.92;11.20;;;;;;;8.93;76.91;101993.69;10356032;28;20041;-74
2022/05/05 02:27:52;;;;;;;20.17;13.18;;;;;;;8.93;76.56;101993.69;10373936;28;20454;-73
2022/05/05 02:32:53;;;;;;;20.98;12.05;;;;;;;8.88;76.58;101996.03;10373355;28;20050;-74
2022/05/05 02:43:12;;;;;;;18.40;11.63;;;;;;;8.85;76.98;101993.66;10373307;28;20042;-73
2022/05/05 02:48:13;;;;;;;28.23;11.77;;;;;;;8.91;77.11;101992.16;10372512;28;20038;-74
2022/05/05 02:58:32;;;;;;;13.95;11.02;;;;;;;9.13;77.34;101994.31;10380766;28;20030;-73
2022/05/05 03:03:32;;;;;;;13.90;10.80;;;;;;;9.23;77.34;101988.78;10363572;28;20038;-73
2022/05/05 03:08:33;;;;;;;23.20;12.32;;;;;;;9.34;78.41;101995.75;10382217;28;20037;-73
2022/05/05 03:13:33;;;;;;;20.10;13.07;;;;;;;9.40;80.02;101990.53;10363768;28;20080;-73
2022/05/05 03:18:34;;;;;;;15.55;11.93;;;;;;;9.44;82.28;101986.50;10380029;28;20038;-73
2022/05/05 03:23:34;;;;;;;17.67;10.90;;;;;;;9.58;80.42;101992.31;10380741;28;20042;-72
2022/05/05 03:28:35;;;;;;;18.27;12.20;;;;;;;9.59;81.68;102000.25;10362008;28;20044;-74
2022/05/05 03:33:36;;;;;;;18.15;11.30;;;;;;;9.64;80.79;101997.91;10380009;28;20042;-73
2022/05/05 03:38:37;;;;;;;21.13;12.52;;;;;;;9.69;79.33;101991.97;10379725;28;20030;-73
2022/05/05 03:43:37;;;;;;;15.77;11.13;;;;;;;9.75;78.78;101994.03;10379683;28;20042;-74
2022/05/05 03:48:37;;;;;;;20.42;12.38;;;;;;;9.79;78.92;101995.38;10378814;28;20088;-73
2022/05/05 03:53:38;;;;;;;20.83;13.50;;;;;;;9.81;78.52;101987.97;10379997;28;20057;-73
2022/05/05 03:58:38;;;;;;;16.95;12.18;;;;;;;9.87;79.30;102002.69;10380537;28;20462;-73
2022/05/05 04:03:43;;;;;;;13.05;11.18;;;;;;;9.93;79.33;102000.16;10377552;28;20083;-74
2022/05/05 04:08:43;;;;;;;12.45;8.63;;;;;;;9.98;78.90;101986.13;10378723;28;20042;-74
2022/05/05 04:13:44;;;;;;;19.30;11.32;;;;;;;10.13;79.13;102007.97;10362314;28;20033;-73
2022/05/05 04:18:44;;;;;;;16.70;11.90;;;;;;;10.21;79.95;102006.13;10377973;28;20069;-73
2022/05/05 04:23:45;;;;;;;19.30;11.88;;;;;;;10.34;79.63;102004.78;10377917;28;20454;-73
2022/05/05 04:28:47;;;;;;;20.23;12.57;;;;;;;10.40;80.34;102004.97;10377807;28;20038;-72
2022/05/05 04:33:48;;;;;;;22.38;11.43;;;;;;;10.54;79.57;102005.31;10361014;28;20037;-74
2022/05/05 04:38:48;;;;;;;23.50;12.00;;;;;;;10.63;80.10;102005.13;10376912;28;20041;-75
2022/05/05 04:43:48;;;;;;;19.60;11.35;;;;;;;10.74;81.71;102012.06;10359461;28;20034;-74
2022/05/05 04:48:49;;;;;;;19.00;11.95;;;;;;;10.79;83.33;102004.28;10377007;28;20041;-74
2022/05/05 04:53:49;;;;;;;21.70;12.85;;;;;;;10.92;81.50;102014.56;10377239;28;20101;-73
2022/05/05 04:58:50;;;;;;;15.55;12.05;;;;;;;10.99;85.88;102017.44;10376010;28;20187;-74
2022/05/05 05:03:50;;;;;;;23.98;13.05;;;;;;;11.01;86.55;102018.97;10377024;28;20408;-74
2022/05/05 05:08:51;;;;;;;17.92;13.15;;;;;;;11.11;84.12;102025.03;10375050;28;20080;-75
2022/05/05 05:13:51;;;;;;;16.75;10.55;;;;;;;11.28;81.92;102041.25;10375654;28;20042;-75
2022/05/05 05:18:53;;;;;;;20.52;13.35;;;;;;;11.34;82.35;102054.13;10294753;28;20050;-75
2022/05/05 05:23:54;;;;;;;22.58;11.18;;;;;;;11.41;84.70;102063.22;10374862;28;20045;-74
2022/05/05 05:28:54;;;;;;;26.75;13.48;;;;;;;11.37;88.79;102064.63;10376241;28;20046;-74
2022/05/05 05:33:55;;;;;;;17.52;12.25;;;;;;;11.48;84.62;102063.38;10375417;28;20401;-75
2022/05/05 05:38:55;;;;;;;21.70;14.85;;;;;;;11.67;82.46;102068.38;10373544;28;20030;-74
2022/05/05 05:43:56;;;;;;;25.67;14.43;;;;;;;11.79;81.68;102079.72;10374186;28;20026;-75
2022/05/05 05:48:56;;;;;;;21.95;15.32;;;;;;;11.91;82.07;102072.06;10376892;28;20422;-75
2022/05/05 05:53:57;;;;;;;30.67;17.13;;;;;;;11.97;81.66;102064.06;10375886;28;20057;-74
2022/05/05 05:58:57;;;;;;;33.03;18.42;;;;;;;12.10;84.13;102087.91;10375251;28;20505;-75
2022/05/05 06:03:58;;;;;;;24.58;18.77;;;;;;;12.21;83.15;102082.03;10373771;28;20042;-74
2022/05/05 06:08:58;;;;;;;49.40;19.88;;;;;;;12.28;86.37;102095.75;10357341;28;20042;-75
2022/05/05 06:13:58;;;;;;;42.25;22.77;;;;;;;12.44;84.97;102102.94;10374843;28;20038;-74
2022/05/05 06:18:59;;;;;;;38.63;21.83;;;;;;;12.57;83.21;102097.75;10376294;28;20061;-74
2022/05/05 06:23:59;;;;;;;36.38;21.92;;;;;;;12.76;82.12;102104.56;10374740;28;20107;-74
2022/05/05 06:28:59;;;;;;;38.67;24.48;;;;;;;12.91;83.53;102110.06;10379342;28;20034;-76
2022/05/05 06:34:00;;;;;;;44.42;25.98;;;;;;;13.02;82.87;102109.63;10383031;28;20398;-76
2022/05/05 06:39:00;;;;;;;42.72;25.17;;;;;;;13.16;83.24;102124.28;10382089;28;20042;-76
2022/05/05 06:44:01;;;;;;;43.92;27.20;;;;;;;13.25;82.97;102128.66;10383146;28;20034;-75
2022/05/05 06:49:01;;;;;;;47.97;27.00;;;;;;;13.37;82.22;102129.03;10388151;28;20041;-75
2022/05/05 06:54:01;;;;;;;49.47;26.98;;;;;;;13.39;84.14;102124.25;10387727;28;20148;-74
2022/05/05 06:59:02;;;;;;;55.50;33.47;;;;;;;13.49;83.54;102133.81;10364551;28;20033;-75
2022/05/05 07:14:40;;;;;;;43.90;29.55;;;;;;;13.80;84.26;102135.53;10368046;28;20041;-75
2022/05/05 07:19:41;;;;;;;49.45;33.35;;;;;;;13.98;84.65;102148.75;10382374;28;20081;-76
2022/05/05 07:24:41;;;;;;;55.92;30.60;;;;;;;14.23;81.56;102145.69;10379389;28;20125;-76
2022/05/05 07:29:42;;;;;;;52.35;30.55;;;;;;;14.42;81.48;102143.22;10347604;28;20491;-76
2022/05/05 07:34:42;;;;;;;60.13;33.15;;;;;;;14.71;81.21;102146.03;10362342;28;20045;-75
2022/05/05 07:39:42;;;;;;;63.78;33.47;;;;;;;14.77;81.54;102146.13;10382290;28;20052;-75
2022/05/05 07:44:43;;;;;;;64.70;32.90;;;;;;;14.98;80.79;102161.63;10364003;28;20529;-75
2022/05/05 07:49:43;;;;;;;73.63;32.78;;;;;;;15.15;80.34;102158.63;10364153;28;20062;-76
2022/05/05 07:54:44;;;;;;;51.38;31.67;;;;;;;15.43;79.63;102156.75;10384374;28;20133;-76
2022/05/05 07:59:45;;;;;;;57.63;36.72;;;;;;;15.63;79.92;102165.06;10380691;28;20053;-76
2022/05/05 08:04:46;;;;;;;56.22;31.83;;;;;;;15.78;79.61;102171.28;10363588;28;20034;-75
2022/05/05 08:09:46;;;;;;;56.42;35.40;;;;;;;15.87;79.62;102180.19;10380230;28;20120;-77
2022/05/05 08:14:46;;;;;;;58.90;34.45;;;;;;;15.92;80.30;102179.56;10379977;28;20049;-74
2022/05/05 08:19:47;;;;;;;58.78;33.63;;;;;;;16.04;79.40;102176.03;10361490;28;20056;-75
2022/05/05 08:30:06;;;;;;;53.38;34.10;;;;;;;16.62;78.43;102180.25;10378222;28;20113;-75
2022/05/05 08:35:07;;;;;;;46.95;32.80;;;;;;;17.02;77.80;102188.59;10377525;28;20128;-76
2022/05/05 08:40:09;;;;;;;57.47;32.60;;;;;;;17.44;77.77;102193.63;10378101;28;20088;-75
2022/05/05 08:45:10;;;;;;;56.35;35.38;;;;;;;17.81;76.82;102194.06;10359607;28;20034;-75
2022/05/05 08:50:10;;;;;;;51.72;32.00;;;;;;;17.74;76.44;102198.69;10358671;28;20038;-77
2022/05/05 08:55:18;;;;;;;52.83;32.92;;;;;;;17.81;75.23;102194.06;10375912;28;20054;-76
2022/05/05 09:00:19;;;;;;;56.97;33.97;;;;;;;17.90;75.34;102200.16;10375931;28;20038;-75
2022/05/05 09:05:44;;;;;;;53.83;33.05;;;;;;;18.35;74.86;102212.03;10359480;28;20450;-76
2022/05/05 09:10:45;;;;;;;44.75;31.00;;;;;;;18.77;74.53;102209.72;10376857;28;20445;-76
2022/05/05 09:15:46;;;;;;;48.75;32.33;;;;;;;19.27;73.24;102214.44;10376526;28;20037;-75
2022/05/05 09:20:47;;;;;;;52.33;27.50;;;;;;;19.42;69.63;102217.69;10358592;28;20042;-76
2022/05/05 09:25:48;;;;;;;35.78;25.13;;;;;;;19.53;71.29;102221.63;10374393;28;20128;-76
2022/05/05 09:30:49;;;;;;;47.50;26.33;;;;;;;19.76;70.41;102228.44;10358332;28;20541;-74
2022/05/05 09:35:56;;;;;;;34.22;24.70;;;;;;;19.62;66.33;102217.53;10358334;28;20124;-75
2022/05/05 09:41:03;;;;;;;34.42;23.75;;;;;;;19.40;68.35;102228.09;10375207;28;20103;-76
2022/05/05 09:46:21;;;;;;;29.85;21.30;;;;;;;19.82;68.18;102220.13;10374383;28;20037;-76
2022/05/05 09:51:22;;;;;;;34.38;23.38;;;;;;;20.21;69.28;102223.47;10376400;28;20122;-75
2022/05/05 10:01:41;;;;;;;27.75;18.70;;;;;;;20.65;68.89;102227.81;10373416;28;20041;-75
2022/05/05 10:06:42;;;;;;;31.25;20.75;;;;;;;20.84;68.05;102236.88;10358425;28;20030;-76
2022/05/05 10:11:43;;;;;;;29.90;19.90;;;;;;;20.71;67.53;102230.69;10372854;28;20482;-75
2022/05/05 10:16:43;;;;;;;18.33;16.42;;;;;;;20.63;66.10;102243.72;10374795;28;20037;-76
2022/05/05 10:21:59;;;;;;;16.70;14.00;;;;;;;20.57;64.87;102236.38;10375743;28;20100;-76
2022/05/05 10:27:01;;;;;;;24.87;14.67;;;;;;;20.48;65.75;102239.66;10375599;28;20111;-76
2022/05/05 10:32:09;;;;;;;15.80;10.50;;;;;;;21.07;64.82;102230.59;10374050;28;20030;-75
2022/05/05 10:37:14;;;;;;;13.43;9.30;;;;;;;21.32;61.02;102235.09;10372804;28;20381;-75
2022/05/05 10:42:26;;;;;;;13.93;9.98;;;;;;;21.25;55.19;102240.72;10340730;28;20558;-77
2022/05/05 10:47:48;;;;;;;21.75;10.90;;;;;;;20.56;60.81;102242.13;10357934;28;20042;-75
2022/05/05 10:52:52;;;;;;;16.40;12.40;;;;;;;20.84;61.75;102236.88;10374061;28;20046;-75
2022/05/05 10:57:53;;;;;;;16.50;13.10;;;;;;;20.81;63.45;102239.25;10375023;28;20104;-76
2022/05/05 11:03:02;;;;;;;13.85;12.15;;;;;;;20.96;64.44;102250.66;10357039;28;20100;-75
2022/05/05 11:08:06;;;;;;;20.58;11.65;;;;;;;21.01;64.15;102250.81;10373369;28;20466;-73
2022/05/05 11:13:08;;;;;;;12.35;10.27;;;;;;;20.89;64.13;102255.44;10359669;28;20030;-75
2022/05/05 11:23:43;;;;;;;12.27;10.43;;;;;;;21.52;62.19;102241.13;10367142;28;20070;-75
2022/05/05 11:28:44;;;;;;;18.70;10.30;;;;;;;22.33;60.69;102244.09;10381776;28;20040;-76
2022/05/05 11:34:03;;;;;;;13.02;11.63;;;;;;;22.90;60.23;102244.13;10379212;28;20038;-75
2022/05/05 11:39:03;;;;;;;17.10;11.05;;;;;;;22.55;59.22;102251.72;10363361;28;20033;-75
2022/05/05 11:44:17;;;;;;;17.45;10.07;;;;;;;22.01;60.44;102252.75;10365973;28;20030;-76
2022/05/05 11:49:18;;;;;;;12.23;9.15;;;;;;;21.55;61.71;102254.44;10388966;28;20029;-76
2022/05/05 11:54:26;;;;;;;13.55;11.02;;;;;;;22.32;61.15;102256.22;10387988;28;20080;-75
2022/05/05 12:04:57;;;;;;;12.48;9.43;;;;;;;23.37;59.58;102259.66;10379153;28;20030;-76
2022/05/05 12:09:58;;;;;;;19.98;11.80;;;;;;;23.71;57.37;102254.13;10362557;28;20084;-77
2022/05/05 12:15:00;;;;;;;14.13;9.48;;;;;;;23.19;56.24;102264.31;10379033;28;20374;-74
2022/05/05 12:20:05;;;;;;;11.43;9.95;;;;;;;22.60;58.19;102260.97;10361985;28;20508;-75
2022/05/05 12:25:16;;;;;;;17.42;10.82;;;;;;;22.25;58.87;102258.28;10360675;28;20034;-75
2022/05/05 12:30:36;;;;;;;16.65;11.00;;;;;;;22.02;58.37;102272.94;10360488;28;20030;-75
2022/05/05 12:35:38;;;;;;;21.70;12.30;;;;;;;22.09;60.16;102270.03;10376438;28;20331;-75
2022/05/05 12:40:43;;;;;;;11.38;10.27;;;;;;;22.10;57.80;102266.19;10377305;28;20034;-78
2022/05/05 12:45:45;;;;;;;16.63;12.13;;;;;;;22.05;56.95;102259.50;10359551;28;20034;-76
2022/05/05 12:50:51;;;;;;;15.18;12.05;;;;;;;22.31;58.92;102273.06;10360236;28;20075;-75
2022/05/05 13:01:29;;;;;;;16.50;12.88;;;;;;;22.41;57.97;102273.25;10375969;28;20038;-75
2022/05/05 13:06:30;;;;;;;14.65;13.15;;;;;;;22.57;59.22;102271.66;10375854;28;20029;-75
2022/05/05 13:11:30;;;;;;;13.88;10.60;;;;;;;22.81;59.38;102267.72;10360288;28;20327;-74
2022/05/05 13:16:31;;;;;;;23.05;13.85;;;;;;;23.00;57.36;102275.84;10377455;28;20041;-74
2022/05/05 13:21:36;;;;;;;18.80;14.95;;;;;;;23.33;56.06;102273.16;10375133;28;20034;-75
2022/05/05 13:26:41;;;;;;;18.20;15.68;;;;;;;24.13;55.69;102271.94;10375098;28;20030;-75
2022/05/05 13:31:42;;;;;;;26.30;15.83;;;;;;;24.63;54.27;102270.09;10375235;28;20030;-74
2022/05/05 13:36:42;;;;;;;16.02;14.35;;;;;;;24.52;54.70;102276.63;10375168;28;20465;-75
2022/05/05 13:41:43;;;;;;;23.55;16.90;;;;;;;24.92;54.53;102278.19;10376260;28;20045;-74
2022/05/05 13:46:43;;;;;;;19.08;12.63;;;;;;;25.09;55.46;102278.94;10374666;28;20117;-75
2022/05/05 13:51:43;;;;;;;17.17;14.48;;;;;;;24.78;54.80;102284.16;10375554;28;20449;-75
2022/05/05 13:56:44;;;;;;;14.57;12.07;;;;;;;24.90;56.02;102289.56;10358243;28;20042;-74
2022/05/05 14:01:45;;;;;;;16.55;12.88;;;;;;;24.68;54.43;102285.97;10374263;28;20433;-75
2022/05/05 14:06:46;;;;;;;24.13;13.88;;;;;;;24.43;54.68;102279.00;10374609;28;20033;-75
2022/05/05 14:17:05;;;;;;;15.88;11.00;;;;;;;23.63;54.72;102294.09;10374061;28;20037;-75
2022/05/05 14:22:06;;;;;;;12.02;10.82;;;;;;;23.24;54.20;102298.69;10373822;28;20038;-75
2022/05/05 14:27:07;;;;;;;13.60;10.00;;;;;;;22.84;54.20;102303.13;10357740;28;20153;-74
2022/05/05 14:32:08;;;;;;;14.95;13.25;;;;;;;22.82;54.75;102305.31;10356487;28;20069;-75
2022/05/05 14:37:10;;;;;;;15.90;12.23;;;;;;;22.54;55.73;102310.81;10356095;28;20038;-75
2022/05/05 14:42:10;;;;;;;22.85;13.07;;;;;;;22.41;56.50;102307.22;10374408;28;20038;-75
2022/05/05 14:47:11;;;;;;;15.45;13.88;;;;;;;22.18;56.84;102313.63;10373703;28;20034;-75
2022/05/05 14:52:11;;;;;;;12.00;10.05;;;;;;;21.80;57.74;102311.28;10380574;28;20098;-75
2022/05/05 14:57:15;;;;;;;19.27;11.10;;;;;;;21.46;57.81;102319.25;10381657;28;20042;-75
2022/05/05 15:02:15;;;;;;;12.50;10.45;;;;;;;20.93;58.49;102309.00;10364113;28;20044;-74
2022/05/05 15:07:16;;;;;;;18.60;11.05;;;;;;;20.95;59.29;102314.25;10379504;28;20335;-74
2022/05/05 15:12:16;;;;;;;15.23;11.07;;;;;;;20.92;59.09;102317.47;10363121;28;20026;-74
2022/05/05 15:17:17;;;;;;;15.45;10.93;;;;;;;20.72;59.45;102317.75;10380532;28;20084;-75
2022/05/05 15:22:17;;;;;;;11.05;9.10;;;;;;;20.59;59.71;102319.56;10380123;28;20037;-75
2022/05/05 15:27:17;;;;;;;13.60;11.27;;;;;;;20.54;60.04;102329.59;10380059;28;20069;-74
2022/05/05 15:32:18;;;;;;;15.98;10.77;;;;;;;20.24;59.54;102326.72;10380022;28;20034;-75
2022/05/05 15:37:18;;;;;;;13.57;10.07;;;;;;;20.05;60.29;102320.34;10379533;28;20405;-74
2022/05/05 15:42:19;;;;;;;9.90;8.20;;;;;;;19.86;60.63;102323.03;10379245;28;20038;-75
2022/05/05 15:47:19;;;;;;;14.40;9.77;;;;;;;19.83;61.06;102328.16;10379249;28;20037;-74
2022/05/05 15:52:20;;;;;;;17.83;10.65;;;;;;;19.42;61.61;102332.22;10377355;28;20100;-75
2022/05/05 15:57:21;;;;;;;15.25;12.68;;;;;;;19.37;61.65;102340.28;10361616;28;20146;-75
2022/05/05 16:02:22;;;;;;;15.18;10.15;;;;;;;19.40;61.77;102339.84;10361502;28;20034;-76
2022/05/05 16:07:23;;;;;;;19.98;10.75;;;;;;;19.26;61.72;102339.09;10378361;28;20076;-76
2022/05/05 16:12:23;;;;;;;19.25;12.45;;;;;;;18.87;61.73;102334.66;10379084;28;20030;-75
2022/05/05 16:17:24;;;;;;;11.85;10.55;;;;;;;18.29;61.74;102339.03;10378345;28;20183;-74
2022/05/05 16:22:25;;;;;;;19.33;10.57;;;;;;;17.74;62.03;102340.28;10378609;28;20040;-75
2022/05/05 16:32:45;;;;;;;15.63;9.80;;;;;;;17.11;63.23;102337.88;10377920;28;20089;-75
2022/05/05 16:37:47;;;;;;;12.60;8.10;;;;;;;16.91;65.06;102349.59;10359191;28;20037;-75
2022/05/05 16:42:48;;;;;;;16.13;10.38;;;;;;;16.76;64.36;102348.91;10375543;28;20180;-75
2022/05/05 16:47:49;;;;;;;16.88;9.80;;;;;;;16.49;65.40;102356.06;10359740;28;20038;-75
2022/05/05 16:52:50;;;;;;;13.90;8.88;;;;;;;16.21;67.10;102367.06;10377276;28;20078;-75
2022/05/05 16:57:55;;;;;;;11.77;8.25;;;;;;;16.09;66.10;102358.56;10377091;28;20378;-76
2022/05/05 17:02:56;;;;;;;16.35;8.23;;;;;;;15.95;66.69;102371.28;10378414;28;20044;-76
2022/05/05 17:07:56;;;;;;;14.70;9.23;;;;;;;15.73;67.82;102364.09;10358910;28;20026;-76
2022/05/05 17:12:57;;;;;;;10.32;6.30;;;;;;;15.56;68.02;102374.44;10375487;28;20069;-76
2022/05/05 17:17:57;;;;;;;7.65;5.95;;;;;;;15.28;69.51;102375.19;10377607;28;20034;-75
2022/05/05 17:22:58;;;;;;;10.70;6.07;;;;;;;15.05;68.70;102369.88;10360227;28;20038;-76
2022/05/05 17:27:58;;;;;;;15.50;7.00;;;;;;;14.95;69.18;102384.84;10376982;28;20030;-74
2022/05/05 17:32:59;;;;;;;13.13;5.60;;;;;;;14.72;69.25;102379.53;10376023;28;20034;-75
2022/05/05 17:38:00;;;;;;;16.00;6.60;;;;;;;14.55;70.05;102376.13;10376169;28;20033;-75
2022/05/05 17:43:00;;;;;;;11.15;8.02;;;;;;;14.47;71.51;102396.13;10375733;28;20038;-76
2022/05/05 17:53:19;;;;;;;13.13;8.45;;;;;;;14.15;72.26;102406.31;10374366;28;20054;-74
2022/05/05 17:58:20;;;;;;;15.88;8.90;;;;;;;14.01;71.59;102403.53;10375003;28;20034;-74
2022/05/05 18:03:20;;;;;;;18.10;11.35;;;;;;;13.73;72.71;102399.50;10357138;28;20037;-74
2022/05/05 18:08:20;;;;;;;17.02;10.85;;;;;;;13.48;73.07;102415.16;10374513;28;20029;-74
2022/05/05 18:13:21;;;;;;;13.95;9.65;;;;;;;13.22;73.54;102417.34;10356823;28;20037;-74
2022/05/05 18:18:21;;;;;;;16.02;9.57;;;;;;;12.96;74.24;102420.34;10358455;28;20076;-75
2022/05/05 18:23:22;;;;;;;12.57;9.27;;;;;;;12.75;74.05;102419.03;10355805;28;20030;-75
2022/05/05 18:28:23;;;;;;;15.30;10.00;;;;;;;12.56;75.16;102420.28;10373846;28;20037;-74
2022/05/05 18:33:23;;;;;;;12.43;9.52;;;;;;;12.35;77.62;102422.72;10373804;28;20041;-74
2022/05/05 18:38:24;;;;;;;12.65;8.35;;;;;;;12.18;76.92;102423.75;10373841;28;20030;-74
2022/05/05 18:43:27;;;;;;;13.38;8.05;;;;;;;11.97;79.88;102433.25;10373614;28;20433;-75
2022/05/05 18:48:28;;;;;;;11.15;8.48;;;;;;;11.99;81.63;102431.19;10373206;28;20116;-74
2022/05/05 18:53:28;;;;;;;11.32;8.23;;;;;;;12.10;83.70;102440.91;10374377;28;20061;-76
2022/05/05 18:58:28;;;;;;;14.07;10.27;;;;;;;12.16;84.42;102444.81;10374492;28;20041;-76
2022/05/05 19:03:29;;;;;;;12.30;8.88;;;;;;;12.22;82.45;102458.56;10372266;28;20037;-75
2022/05/05 19:08:29;;;;;;;14.38;8.45;;;;;;;12.18;83.36;102462.59;10373273;28;20381;-76
2022/05/05 19:13:30;;;;;;;7.57;6.57;;;;;;;12.07;83.34;102454.81;10355470;28;20052;-75
2022/05/05 19:18:30;;;;;;;12.27;8.85;;;;;;;12.12;82.73;102465.16;10372325;28;20054;-73
2022/05/05 19:23:30;;;;;;;12.45;8.80;;;;;;;12.07;86.59;102463.81;10356318;28;20050;-73
2022/05/05 19:28:31;;;;;;;11.27;7.97;;;;;;;12.00;84.90;102464.66;10371234;28;20034;-73
2022/05/05 19:33:31;;;;;;;10.23;7.38;;;;;;;12.00;83.12;102481.78;10340883;28;20049;-73
2022/05/05 19:38:32;;;;;;;14.25;8.20;;;;;;;11.98;83.67;102496.53;10380125;28;20116;-73
2022/05/05 19:43:34;;;;;;;14.88;8.50;;;;;;;11.90;85.42;102494.69;10362855;28;20362;-73
2022/05/05 19:48:35;;;;;;;12.95;10.30;;;;;;;11.87;83.33;102495.00;10363521;28;20416;-73
2022/05/05 19:53:35;;;;;;;15.65;9.30;;;;;;;11.87;82.95;102500.44;10362204;28;20120;-73
2022/05/05 20:03:55;;;;;;;17.95;13.10;;;;;;;11.64;85.01;102517.28;10378192;28;20041;-73
2022/05/05 20:08:56;;;;;;;18.30;11.63;;;;;;;11.59;84.71;102516.09;10379923;28;20462;-73
2022/05/05 20:13:56;;;;;;;11.65;9.50;;;;;;;11.63;86.17;102528.31;10362988;28;20069;-75
2022/05/05 20:18:59;;;;;;;15.45;12.50;;;;;;;11.63;88.81;102534.59;10361812;28;20042;-73
2022/05/05 20:24:01;;;;;;;20.52;10.30;;;;;;;11.66;86.24;102532.56;10378268;28;20499;-74
2022/05/05 20:29:02;;;;;;;17.10;11.55;;;;;;;11.71;84.66;102546.47;10378173;28;20401;-73
2022/05/05 20:34:03;;;;;;;14.38;10.60;;;;;;;11.72;84.10;102542.78;10361903;28;20030;-74
2022/05/05 20:39:03;;;;;;;15.02;11.18;;;;;;;11.69;84.11;102541.22;10361115;28;20502;-73
2022/05/05 20:44:05;;;;;;;17.70;15.80;;;;;;;11.59;85.27;102551.38;10359914;28;20034;-73
2022/05/05 20:49:05;;;;;;;20.63;14.73;;;;;;;11.54;85.01;102545.59;10378665;28;20030;-73
2022/05/05 20:54:05;;;;;;;16.92;12.02;;;;;;;11.49;86.79;102550.66;10359735;28;20077;-74
2022/05/05 20:59:06;;;;;;;19.67;15.00;;;;;;;11.50;85.52;102550.50;10376970;28;20120;-74
2022/05/05 21:04:06;;;;;;;30.23;17.52;;;;;;;11.56;85.40;102551.72;10343669;28;20132;-73
2022/05/05 21:09:07;;;;;;;27.75;16.63;;;;;;;11.52;85.72;102551.19;10377085;28;20081;-72
2022/05/05 21:14:08;;;;;;;29.10;17.15;;;;;;;11.51;85.14;102546.75;10359358;28;20381;-73
2022/05/05 21:19:08;;;;;;;32.78;18.17;;;;;;;11.58;84.68;102546.94;10376952;28;20121;-73
2022/05/05 21:29:27;;;;;;;28.98;17.80;;;;;;;11.65;84.01;102550.72;10375492;28;20478;-73
2022/05/05 21:34:28;;;;;;;23.98;14.88;;;;;;;11.65;83.27;102553.44;10374969;28;20030;-73
2022/05/05 21:39:29;;;;;;;27.63;15.85;;;;;;;11.56;83.94;102559.84;10375497;28;20041;-74
2022/05/05 21:44:29;;;;;;;24.77;14.13;;;;;;;11.47;85.13;102561.66;10375243;28;20037;-73
2022/05/05 21:49:29;;;;;;;22.85;15.55;;;;;;;11.46;84.75;102559.13;10375228;28;20029;-73
2022/05/05 21:54:30;;;;;;;24.08;13.52;;;;;;;11.41;86.30;102562.31;10358061;28;20123;-74
2022/05/05 21:59:30;;;;;;;20.88;12.73;;;;;;;11.37;86.58;102566.38;10357338;28;20347;-74
2022/05/05 22:04:32;;;;;;;24.10;15.20;;;;;;;11.28;87.43;102570.91;10357350;28;20052;-75
2022/05/05 22:09:32;;;;;;;21.40;13.45;;;;;;;10.96;96.25;102570.72;10358029;28;20034;-74
2022/05/05 22:14:33;;;;;;;30.90;16.52;;;;;;;11.00;91.85;102578.34;10356894;28;20044;-74
2022/05/05 22:19:33;;;;;;;30.77;18.90;;;;;;;11.00;91.77;102564.78;10374945;28;20076;-73
2022/05/05 22:24:33;;;;;;;29.67;17.92;;;;;;;11.09;91.17;102574.69;10356641;28;20038;-74
2022/05/05 22:29:34;;;;;;;36.90;18.73;;;;;;;11.15;90.25;102575.91;10375480;28;20052;-74
2022/05/05 22:34:35;;;;;;;38.75;19.05;;;;;;;11.21;88.90;102582.56;10375018;28;20038;-74
2022/05/05 22:39:35;;;;;;;28.65;18.77;;;;;;;11.23;90.32;102589.53;10375452;28;20050;-74
2022/05/05 22:44:35;;;;;;;36.88;19.90;;;;;;;11.38;87.85;102587.91;10373732;28;20129;-73
2022/05/05 22:54:55;;;;;;;47.55;23.13;;;;;;;11.36;87.88;102589.94;10358583;28;20050;-74
2022/05/05 22:59:55;;;;;;;35.97;23.20;;;;;;;11.44;87.93;102586.41;10355202;28;20046;-74
2022/05/05 23:04:56;;;;;;;49.22;29.42;;;;;;;11.50;87.75;102591.19;10372839;28;20438;-74
2022/05/05 23:09:56;;;;;;;47.17;26.20;;;;;;;11.52;87.89;102588.28;10377476;28;20034;-74
2022/05/05 23:14:56;;;;;;;39.17;22.92;;;;;;;11.43;88.96;102578.44;10380366;28;20500;-73
2022/05/05 23:19:57;;;;;;;42.75;22.60;;;;;;;11.46;88.26;102586.25;10363229;28;20033;-74
2022/05/05 23:24:57;;;;;;;44.53;23.35;;;;;;;11.48;88.14;102585.06;10381854;28;20361;-75
2022/05/05 23:29:58;;;;;;;47.20;23.20;;;;;;;11.47;88.07;102590.66;10380435;28;20470;-75
2022/05/05 23:40:17;;;;;;;37.95;18.65;;;;;;;11.45;89.21;102592.69;10365216;28;20034;-73
2022/05/05 23:45:18;;;;;;;33.58;18.48;;;;;;;11.44;88.70;102590.97;10379713;28;20042;-75
2022/05/05 23:50:18;;;;;;;42.65;18.77;;;;;;;11.35;88.41;102584.66;10379931;28;20038;-75
2022/05/05 23:55:19;;;;;;;34.08;19.73;;;;;;;11.23;88.39;102583.22;10377777;28;20057;-74
